ESDF

Ronneby Airport

Sweden
METAR ESDF 221920Z AUTO 25005KT 9999 NCD 21/16 Q1011
Observed Flight Rules
Jul-22 @ 19:20 UTC (29 minutes ago) Visual Flight Rules
Wind Visibility Clouds
250° at 5 knots 10,000+ meters
  • Clear skies
Temperatures Readings
Current 21°C / 70°F
Dewpoint 16°C / 61°F
Humidity 73%
Altimeter 29.85" Hg
Pressure 1011 hPa
Elevation 74
METAR ESDF 221920Z AUTO 25005KT 9999 NCD 21/16 Q1011
Observed Flight Rules
Jul-22 @ 19:20 UTC
(29 minutes ago)
VFR
Wind Visibility
250° at 5 knots 10,000+ meters
Clouds
  • Clear skies
Temperature Dewpoint
21°C / 70°F 16°C / 61°F
Humidity Altimeter Pressure
73% 29.85" Hg 1011 hPa